sensor_id;sensor_type;location;lat;lon;timestamp;P1;durP1;ratioP1;P2;durP2;ratioP2
70953;SDS011;58618;47.490;8.736;2023-05-10T00:02:37;0.60;;;0.60;;
70953;SDS011;58618;47.490;8.736;2023-05-10T00:05:25;1.90;;;0.70;;
70953;SDS011;58618;47.490;8.736;2023-05-10T00:08:12;1.70;;;0.60;;
70953;SDS011;58618;47.490;8.736;2023-05-10T00:10:59;0.70;;;0.60;;
70953;SDS011;58618;47.490;8.736;2023-05-10T00:13:48;0.60;;;0.50;;
70953;SDS011;58618;47.490;8.736;2023-05-10T00:16:35;0.90;;;0.60;;
70953;SDS011;58618;47.490;8.736;2023-05-10T00:19:23;0.60;;;0.50;;
70953;SDS011;58618;47.490;8.736;2023-05-10T00:22:10;0.77;;;0.70;;
70953;SDS011;58618;47.490;8.736;2023-05-10T00:24:57;0.70;;;0.60;;
70953;SDS011;58618;47.490;8.736;2023-05-10T00:27:45;0.50;;;0.50;;
70953;SDS011;58618;47.490;8.736;2023-05-10T00:30:34;1.17;;;0.70;;
70953;SDS011;58618;47.490;8.736;2023-05-10T00:33:21;1.00;;;0.70;;
70953;SDS011;58618;47.490;8.736;2023-05-10T00:36:09;0.88;;;0.65;;
70953;SDS011;58618;47.490;8.736;2023-05-10T00:38:56;0.80;;;0.70;;
70953;SDS011;58618;47.490;8.736;2023-05-10T00:41:43;0.90;;;0.77;;
70953;SDS011;58618;47.490;8.736;2023-05-10T00:44:31;0.77;;;0.60;;
70953;SDS011;58618;47.490;8.736;2023-05-10T00:47:19;0.70;;;0.60;;
70953;SDS011;58618;47.490;8.736;2023-05-10T00:50:08;0.70;;;0.60;;
70953;SDS011;58618;47.490;8.736;2023-05-10T00:52:56;0.68;;;0.60;;
70953;SDS011;58618;47.490;8.736;2023-05-10T00:55:44;0.50;;;0.50;;
70953;SDS011;58618;47.490;8.736;2023-05-10T00:58:32;0.73;;;0.60;;
70953;SDS011;58618;47.490;8.736;2023-05-10T01:01:19;0.57;;;0.53;;
70953;SDS011;58618;47.490;8.736;2023-05-10T01:04:08;2.30;;;0.70;;
70953;SDS011;58618;47.490;8.736;2023-05-10T01:06:56;1.08;;;0.70;;
70953;SDS011;58618;47.490;8.736;2023-05-10T01:09:44;0.93;;;0.68;;
70953;SDS011;58618;47.490;8.736;2023-05-10T01:12:31;1.08;;;0.70;;
70953;SDS011;58618;47.490;8.736;2023-05-10T01:15:19;0.70;;;0.60;;
70953;SDS011;58618;47.490;8.736;2023-05-10T01:18:08;0.82;;;0.50;;
70953;SDS011;58618;47.490;8.736;2023-05-10T01:20:59;2.35;;;0.70;;
70953;SDS011;58618;47.490;8.736;2023-05-10T01:24:01;1.02;;;0.60;;
70953;SDS011;58618;47.490;8.736;2023-05-10T01:27:07;1.70;;;0.60;;
70953;SDS011;58618;47.490;8.736;2023-05-10T01:30:13;2.03;;;0.70;;
70953;SDS011;58618;47.490;8.736;2023-05-10T01:33:30;0.75;;;0.60;;
70953;SDS011;58618;47.490;8.736;2023-05-10T01:36:26;0.65;;;0.52;;
70953;SDS011;58618;47.490;8.736;2023-05-10T01:39:20;6.97;;;0.70;;
70953;SDS011;58618;47.490;8.736;2023-05-10T01:42:14;0.75;;;0.55;;
70953;SDS011;58618;47.490;8.736;2023-05-10T01:45:07;1.57;;;0.50;;
70953;SDS011;58618;47.490;8.736;2023-05-10T01:48:05;0.50;;;0.50;;
70953;SDS011;58618;47.490;8.736;2023-05-10T01:50:55;0.90;;;0.65;;
70953;SDS011;58618;47.490;8.736;2023-05-10T01:53:45;0.90;;;0.65;;
70953;SDS011;58618;47.490;8.736;2023-05-10T01:56:34;0.63;;;0.60;;
70953;SDS011;58618;47.490;8.736;2023-05-10T01:59:24;0.73;;;0.60;;
70953;SDS011;58618;47.490;8.736;2023-05-10T02:02:16;0.70;;;0.60;;
70953;SDS011;58618;47.490;8.736;2023-05-10T02:05:07;0.85;;;0.73;;
70953;SDS011;58618;47.490;8.736;2023-05-10T02:07:57;0.85;;;0.63;;
70953;SDS011;58618;47.490;8.736;2023-05-10T02:10:46;1.42;;;0.70;;
70953;SDS011;58618;47.490;8.736;2023-05-10T02:13:36;1.00;;;0.50;;
70953;SDS011;58618;47.490;8.736;2023-05-10T02:16:26;0.90;;;0.63;;
70953;SDS011;58618;47.490;8.736;2023-05-10T02:19:16;1.25;;;0.80;;
70953;SDS011;58618;47.490;8.736;2023-05-10T02:22:06;0.60;;;0.50;;
70953;SDS011;58618;47.490;8.736;2023-05-10T02:24:56;0.73;;;0.60;;
70953;SDS011;58618;47.490;8.736;2023-05-10T02:27:45;2.50;;;0.80;;
70953;SDS011;58618;47.490;8.736;2023-05-10T02:30:34;0.65;;;0.60;;
70953;SDS011;58618;47.490;8.736;2023-05-10T02:33:22;0.90;;;0.70;;
70953;SDS011;58618;47.490;8.736;2023-05-10T02:36:10;1.10;;;0.80;;
70953;SDS011;58618;47.490;8.736;2023-05-10T02:38:59;1.70;;;0.68;;
70953;SDS011;58618;47.490;8.736;2023-05-10T02:41:50;0.87;;;0.70;;
70953;SDS011;58618;47.490;8.736;2023-05-10T02:44:41;4.78;;;0.70;;
70953;SDS011;58618;47.490;8.736;2023-05-10T02:47:29;1.38;;;0.80;;
70953;SDS011;58618;47.490;8.736;2023-05-10T02:50:17;0.80;;;0.70;;
70953;SDS011;58618;47.490;8.736;2023-05-10T02:53:06;1.67;;;0.90;;
70953;SDS011;58618;47.490;8.736;2023-05-10T02:55:59;0.90;;;0.60;;
70953;SDS011;58618;47.490;8.736;2023-05-10T02:58:54;1.13;;;0.80;;
70953;SDS011;58618;47.490;8.736;2023-05-10T03:01:42;1.02;;;0.88;;
70953;SDS011;58618;47.490;8.736;2023-05-10T03:04:29;2.97;;;0.70;;
70953;SDS011;58618;47.490;8.736;2023-05-10T03:07:16;1.50;;;1.08;;
70953;SDS011;58618;47.490;8.736;2023-05-10T03:10:07;1.10;;;0.87;;
70953;SDS011;58618;47.490;8.736;2023-05-10T03:12:57;1.23;;;0.95;;
70953;SDS011;58618;47.490;8.736;2023-05-10T03:15:55;1.25;;;1.00;;
70953;SDS011;58618;47.490;8.736;2023-05-10T03:18:48;1.60;;;0.90;;
70953;SDS011;58618;47.490;8.736;2023-05-10T03:21:43;2.75;;;1.00;;
70953;SDS011;58618;47.490;8.736;2023-05-10T03:24:36;1.10;;;0.97;;
70953;SDS011;58618;47.490;8.736;2023-05-10T03:27:26;0.90;;;0.80;;
70953;SDS011;58618;47.490;8.736;2023-05-10T03:30:14;1.27;;;0.90;;
70953;SDS011;58618;47.490;8.736;2023-05-10T03:33:07;1.50;;;1.08;;
70953;SDS011;58618;47.490;8.736;2023-05-10T03:35:54;1.35;;;1.17;;
70953;SDS011;58618;47.490;8.736;2023-05-10T03:38:42;1.07;;;0.90;;
70953;SDS011;58618;47.490;8.736;2023-05-10T03:41:29;1.67;;;1.10;;
70953;SDS011;58618;47.490;8.736;2023-05-10T03:44:16;1.52;;;0.93;;
70953;SDS011;58618;47.490;8.736;2023-05-10T03:47:04;1.30;;;1.13;;
70953;SDS011;58618;47.490;8.736;2023-05-10T03:49:53;1.60;;;1.30;;
70953;SDS011;58618;47.490;8.736;2023-05-10T03:52:40;1.20;;;0.93;;
70953;SDS011;58618;47.490;8.736;2023-05-10T03:55:27;4.82;;;1.40;;
70953;SDS011;58618;47.490;8.736;2023-05-10T03:58:15;1.80;;;1.13;;
70953;SDS011;58618;47.490;8.736;2023-05-10T04:01:03;2.63;;;1.33;;
70953;SDS011;58618;47.490;8.736;2023-05-10T04:03:50;1.80;;;1.23;;
70953;SDS011;58618;47.490;8.736;2023-05-10T04:06:39;1.87;;;1.40;;
70953;SDS011;58618;47.490;8.736;2023-05-10T04:09:26;1.60;;;1.17;;
70953;SDS011;58618;47.490;8.736;2023-05-10T04:12:13;1.38;;;1.10;;
70953;SDS011;58618;47.490;8.736;2023-05-10T04:15:01;1.45;;;1.10;;
70953;SDS011;58618;47.490;8.736;2023-05-10T04:17:48;2.33;;;1.27;;
70953;SDS011;58618;47.490;8.736;2023-05-10T04:20:36;1.50;;;1.30;;
70953;SDS011;58618;47.490;8.736;2023-05-10T04:23:24;1.60;;;1.10;;
70953;SDS011;58618;47.490;8.736;2023-05-10T04:26:12;2.63;;;1.30;;
70953;SDS011;58618;47.490;8.736;2023-05-10T04:29:00;2.45;;;1.20;;
70953;SDS011;58618;47.490;8.736;2023-05-10T04:31:48;1.70;;;1.38;;
70953;SDS011;58618;47.490;8.736;2023-05-10T04:34:36;2.13;;;1.20;;
70953;SDS011;58618;47.490;8.736;2023-05-10T04:37:24;2.35;;;1.20;;
70953;SDS011;58618;47.490;8.736;2023-05-10T04:40:13;1.52;;;1.20;;
70953;SDS011;58618;47.490;8.736;2023-05-10T04:43:00;2.47;;;1.42;;
70953;SDS011;58618;47.490;8.736;2023-05-10T04:45:47;2.45;;;1.40;;
70953;SDS011;58618;47.490;8.736;2023-05-10T04:48:36;2.00;;;1.37;;
70953;SDS011;58618;47.490;8.736;2023-05-10T04:51:23;1.50;;;1.30;;
70953;SDS011;58618;47.490;8.736;2023-05-10T04:54:10;2.60;;;1.50;;
70953;SDS011;58618;47.490;8.736;2023-05-10T04:56:59;1.58;;;1.10;;
70953;SDS011;58618;47.490;8.736;2023-05-10T04:59:46;1.42;;;1.30;;
70953;SDS011;58618;47.490;8.736;2023-05-10T05:02:33;1.80;;;1.50;;
70953;SDS011;58618;47.490;8.736;2023-05-10T05:05:21;3.60;;;1.45;;
70953;SDS011;58618;47.490;8.736;2023-05-10T05:08:09;2.00;;;1.50;;
70953;SDS011;58618;47.490;8.736;2023-05-10T05:11:07;2.05;;;1.52;;
70953;SDS011;58618;47.490;8.736;2023-05-10T05:13:55;2.30;;;1.60;;
70953;SDS011;58618;47.490;8.736;2023-05-10T05:16:44;1.60;;;1.20;;
70953;SDS011;58618;47.490;8.736;2023-05-10T05:19:32;3.28;;;1.70;;
70953;SDS011;58618;47.490;8.736;2023-05-10T05:22:19;2.45;;;1.77;;
70953;SDS011;58618;47.490;8.736;2023-05-10T05:25:13;1.90;;;1.52;;
70953;SDS011;58618;47.490;8.736;2023-05-10T05:28:00;1.80;;;1.40;;
70953;SDS011;58618;47.490;8.736;2023-05-10T05:30:49;2.00;;;1.40;;
70953;SDS011;58618;47.490;8.736;2023-05-10T05:33:37;2.35;;;1.65;;
70953;SDS011;58618;47.490;8.736;2023-05-10T05:36:25;1.50;;;1.10;;
70953;SDS011;58618;47.490;8.736;2023-05-10T05:39:12;1.95;;;1.40;;
70953;SDS011;58618;47.490;8.736;2023-05-10T05:41:59;2.25;;;1.70;;
70953;SDS011;58618;47.490;8.736;2023-05-10T05:44:47;2.27;;;1.60;;
70953;SDS011;58618;47.490;8.736;2023-05-10T05:47:39;2.35;;;1.60;;
70953;SDS011;58618;47.490;8.736;2023-05-10T05:50:27;3.70;;;1.90;;
70953;SDS011;58618;47.490;8.736;2023-05-10T05:53:14;5.50;;;1.55;;
70953;SDS011;58618;47.490;8.736;2023-05-10T05:56:02;2.15;;;1.65;;
70953;SDS011;58618;47.490;8.736;2023-05-10T05:58:50;1.80;;;1.30;;
70953;SDS011;58618;47.490;8.736;2023-05-10T06:01:37;3.13;;;1.50;;
70953;SDS011;58618;47.490;8.736;2023-05-10T06:04:26;4.60;;;1.33;;
70953;SDS011;58618;47.490;8.736;2023-05-10T06:07:13;1.60;;;0.93;;
70953;SDS011;58618;47.490;8.736;2023-05-10T06:10:01;1.83;;;1.27;;
70953;SDS011;58618;47.490;8.736;2023-05-10T06:12:48;1.30;;;1.07;;
70953;SDS011;58618;47.490;8.736;2023-05-10T06:15:35;2.70;;;1.40;;
70953;SDS011;58618;47.490;8.736;2023-05-10T06:18:23;2.72;;;1.50;;
70953;SDS011;58618;47.490;8.736;2023-05-10T06:21:12;2.55;;;1.33;;
70953;SDS011;58618;47.490;8.736;2023-05-10T06:24:00;1.95;;;1.30;;
70953;SDS011;58618;47.490;8.736;2023-05-10T06:26:48;1.67;;;1.00;;
70953;SDS011;58618;47.490;8.736;2023-05-10T06:29:36;1.60;;;1.27;;
70953;SDS011;58618;47.490;8.736;2023-05-10T06:32:23;1.38;;;1.08;;
70953;SDS011;58618;47.490;8.736;2023-05-10T06:35:11;1.42;;;1.00;;
70953;SDS011;58618;47.490;8.736;2023-05-10T06:37:59;1.20;;;1.00;;
70953;SDS011;58618;47.490;8.736;2023-05-10T06:40:47;1.40;;;0.97;;
70953;SDS011;58618;47.490;8.736;2023-05-10T06:43:34;2.03;;;1.20;;
70953;SDS011;58618;47.490;8.736;2023-05-10T06:46:22;1.98;;;1.10;;
70953;SDS011;58618;47.490;8.736;2023-05-10T06:49:10;1.63;;;1.25;;
70953;SDS011;58618;47.490;8.736;2023-05-10T06:51:57;1.75;;;1.10;;
70953;SDS011;58618;47.490;8.736;2023-05-10T06:54:45;1.53;;;1.20;;
70953;SDS011;58618;47.490;8.736;2023-05-10T06:57:33;1.40;;;1.17;;
70953;SDS011;58618;47.490;8.736;2023-05-10T07:00:20;1.10;;;0.98;;
70953;SDS011;58618;47.490;8.736;2023-05-10T07:03:08;1.30;;;1.00;;
70953;SDS011;58618;47.490;8.736;2023-05-10T07:05:59;2.33;;;0.90;;
70953;SDS011;58618;47.490;8.736;2023-05-10T07:08:48;1.20;;;0.83;;
70953;SDS011;58618;47.490;8.736;2023-05-10T07:11:37;1.33;;;0.80;;
70953;SDS011;58618;47.490;8.736;2023-05-10T07:14:25;1.30;;;1.00;;
70953;SDS011;58618;47.490;8.736;2023-05-10T07:17:12;1.10;;;1.00;;
70953;SDS011;58618;47.490;8.736;2023-05-10T07:19:59;0.82;;;0.80;;
70953;SDS011;58618;47.490;8.736;2023-05-10T07:22:47;0.80;;;0.80;;
70953;SDS011;58618;47.490;8.736;2023-05-10T07:25:34;1.02;;;0.93;;
70953;SDS011;58618;47.490;8.736;2023-05-10T07:28:23;0.80;;;0.60;;
70953;SDS011;58618;47.490;8.736;2023-05-10T07:31:10;0.88;;;0.70;;
70953;SDS011;58618;47.490;8.736;2023-05-10T07:33:58;0.80;;;0.68;;
70953;SDS011;58618;47.490;8.736;2023-05-10T07:36:45;1.70;;;0.80;;
70953;SDS011;58618;47.490;8.736;2023-05-10T07:39:32;1.35;;;0.77;;
70953;SDS011;58618;47.490;8.736;2023-05-10T07:42:20;1.88;;;0.68;;
70953;SDS011;58618;47.490;8.736;2023-05-10T07:45:09;0.77;;;0.70;;
70953;SDS011;58618;47.490;8.736;2023-05-10T07:47:56;1.40;;;0.80;;
70953;SDS011;58618;47.490;8.736;2023-05-10T07:50:44;0.90;;;0.70;;
70953;SDS011;58618;47.490;8.736;2023-05-10T07:53:31;1.27;;;0.80;;
70953;SDS011;58618;47.490;8.736;2023-05-10T07:56:22;0.80;;;0.80;;
70953;SDS011;58618;47.490;8.736;2023-05-10T07:59:14;1.30;;;0.77;;
70953;SDS011;58618;47.490;8.736;2023-05-10T08:02:03;2.75;;;0.90;;
70953;SDS011;58618;47.490;8.736;2023-05-10T08:04:51;0.97;;;0.80;;
70953;SDS011;58618;47.490;8.736;2023-05-10T08:07:38;3.13;;;0.70;;
70953;SDS011;58618;47.490;8.736;2023-05-10T08:10:26;1.00;;;0.80;;
70953;SDS011;58618;47.490;8.736;2023-05-10T08:13:13;1.20;;;0.90;;
70953;SDS011;58618;47.490;8.736;2023-05-10T08:16:00;1.17;;;0.90;;
70953;SDS011;58618;47.490;8.736;2023-05-10T08:18:50;3.80;;;0.90;;
70953;SDS011;58618;47.490;8.736;2023-05-10T08:21:37;1.20;;;0.90;;
70953;SDS011;58618;47.490;8.736;2023-05-10T08:24:26;1.20;;;1.00;;
70953;SDS011;58618;47.490;8.736;2023-05-10T08:27:13;2.75;;;1.00;;
70953;SDS011;58618;47.490;8.736;2023-05-10T08:30:00;1.75;;;1.00;;
70953;SDS011;58618;47.490;8.736;2023-05-10T08:32:48;1.43;;;1.00;;
70953;SDS011;58618;47.490;8.736;2023-05-10T08:35:37;1.67;;;0.80;;
70953;SDS011;58618;47.490;8.736;2023-05-10T08:38:24;1.80;;;0.93;;
70953;SDS011;58618;47.490;8.736;2023-05-10T08:41:11;1.20;;;1.00;;
70953;SDS011;58618;47.490;8.736;2023-05-10T08:43:59;4.38;;;0.98;;
70953;SDS011;58618;47.490;8.736;2023-05-10T08:46:50;1.47;;;0.87;;
70953;SDS011;58618;47.490;8.736;2023-05-10T08:49:41;1.10;;;0.82;;
70953;SDS011;58618;47.490;8.736;2023-05-10T08:52:31;1.33;;;1.00;;
70953;SDS011;58618;47.490;8.736;2023-05-10T08:55:22;4.93;;;0.90;;
70953;SDS011;58618;47.490;8.736;2023-05-10T08:58:10;1.33;;;1.00;;
70953;SDS011;58618;47.490;8.736;2023-05-10T09:00:58;2.10;;;1.00;;
70953;SDS011;58618;47.490;8.736;2023-05-10T09:03:46;1.58;;;0.90;;
70953;SDS011;58618;47.490;8.736;2023-05-10T09:06:34;1.45;;;0.80;;
70953;SDS011;58618;47.490;8.736;2023-05-10T09:09:23;1.38;;;0.90;;
70953;SDS011;58618;47.490;8.736;2023-05-10T09:12:12;1.20;;;0.93;;
70953;SDS011;58618;47.490;8.736;2023-05-10T09:15:01;1.47;;;1.00;;
70953;SDS011;58618;47.490;8.736;2023-05-10T09:17:49;1.73;;;0.90;;
70953;SDS011;58618;47.490;8.736;2023-05-10T09:20:36;2.47;;;0.95;;
70953;SDS011;58618;47.490;8.736;2023-05-10T09:23:24;1.45;;;0.80;;
70953;SDS011;58618;47.490;8.736;2023-05-10T09:26:22;2.72;;;1.00;;
70953;SDS011;58618;47.490;8.736;2023-05-10T09:29:10;1.80;;;1.10;;
70953;SDS011;58618;47.490;8.736;2023-05-10T09:31:58;2.30;;;1.08;;
70953;SDS011;58618;47.490;8.736;2023-05-10T09:34:46;1.65;;;1.00;;
70953;SDS011;58618;47.490;8.736;2023-05-10T09:37:37;1.83;;;1.10;;
70953;SDS011;58618;47.490;8.736;2023-05-10T09:40:27;1.80;;;1.23;;
70953;SDS011;58618;47.490;8.736;2023-05-10T09:43:17;2.77;;;1.13;;
70953;SDS011;58618;47.490;8.736;2023-05-10T09:46:08;1.40;;;1.10;;
70953;SDS011;58618;47.490;8.736;2023-05-10T09:48:55;2.78;;;1.13;;
70953;SDS011;58618;47.490;8.736;2023-05-10T09:51:43;3.78;;;0.90;;
70953;SDS011;58618;47.490;8.736;2023-05-10T09:54:30;3.90;;;1.52;;
70953;SDS011;58618;47.490;8.736;2023-05-10T09:57:21;1.83;;;1.10;;
70953;SDS011;58618;47.490;8.736;2023-05-10T10:00:11;1.40;;;1.00;;
70953;SDS011;58618;47.490;8.736;2023-05-10T10:03:04;3.55;;;1.30;;
70953;SDS011;58618;47.490;8.736;2023-05-10T10:05:52;1.10;;;1.00;;
70953;SDS011;58618;47.490;8.736;2023-05-10T10:08:41;2.80;;;1.13;;
70953;SDS011;58618;47.490;8.736;2023-05-10T10:11:29;2.73;;;1.13;;
70953;SDS011;58618;47.490;8.736;2023-05-10T10:14:16;3.92;;;0.90;;
70953;SDS011;58618;47.490;8.736;2023-05-10T10:17:06;1.67;;;1.05;;
70953;SDS011;58618;47.490;8.736;2023-05-10T10:19:55;2.47;;;0.95;;
70953;SDS011;58618;47.490;8.736;2023-05-10T10:22:43;3.03;;;1.27;;
70953;SDS011;58618;47.490;8.736;2023-05-10T10:25:31;3.10;;;1.10;;
70953;SDS011;58618;47.490;8.736;2023-05-10T10:28:22;2.33;;;1.10;;
70953;SDS011;58618;47.490;8.736;2023-05-10T10:31:21;2.17;;;1.55;;
70953;SDS011;58618;47.490;8.736;2023-05-10T10:34:20;3.60;;;1.08;;
70953;SDS011;58618;47.490;8.736;2023-05-10T10:37:13;3.85;;;1.15;;
70953;SDS011;58618;47.490;8.736;2023-05-10T10:40:00;1.27;;;0.93;;
70953;SDS011;58618;47.490;8.736;2023-05-10T10:42:48;1.63;;;1.02;;
70953;SDS011;58618;47.490;8.736;2023-05-10T10:45:38;2.60;;;1.05;;
70953;SDS011;58618;47.490;8.736;2023-05-10T10:48:26;1.80;;;1.20;;
70953;SDS011;58618;47.490;8.736;2023-05-10T10:51:15;1.70;;;1.00;;
70953;SDS011;58618;47.490;8.736;2023-05-10T10:54:08;3.43;;;1.00;;
70953;SDS011;58618;47.490;8.736;2023-05-10T10:57:09;1.23;;;1.00;;
70953;SDS011;58618;47.490;8.736;2023-05-10T11:03:14;4.55;;;0.93;;
70953;SDS011;58618;47.490;8.736;2023-05-10T11:06:04;2.63;;;1.15;;
70953;SDS011;58618;47.490;8.736;2023-05-10T11:08:53;2.30;;;1.07;;
70953;SDS011;58618;47.490;8.736;2023-05-10T11:11:48;1.95;;;0.98;;
70953;SDS011;58618;47.490;8.736;2023-05-10T11:14:37;1.38;;;1.00;;
70953;SDS011;58618;47.490;8.736;2023-05-10T11:17:26;2.10;;;0.90;;
70953;SDS011;58618;47.490;8.736;2023-05-10T11:20:14;1.30;;;1.00;;
70953;SDS011;58618;47.490;8.736;2023-05-10T11:23:11;1.90;;;1.10;;
70953;SDS011;58618;47.490;8.736;2023-05-10T11:26:02;2.72;;;1.00;;
70953;SDS011;58618;47.490;8.736;2023-05-10T11:28:52;2.28;;;0.98;;
70953;SDS011;58618;47.490;8.736;2023-05-10T11:31:42;1.50;;;0.90;;
70953;SDS011;58618;47.490;8.736;2023-05-10T11:34:31;2.13;;;1.00;;
70953;SDS011;58618;47.490;8.736;2023-05-10T11:37:19;1.60;;;0.90;;
70953;SDS011;58618;47.490;8.736;2023-05-10T11:40:07;2.50;;;0.98;;
70953;SDS011;58618;47.490;8.736;2023-05-10T11:42:56;1.38;;;0.80;;
70953;SDS011;58618;47.490;8.736;2023-05-10T11:45:44;1.67;;;1.02;;
70953;SDS011;58618;47.490;8.736;2023-05-10T11:48:32;2.22;;;1.10;;
70953;SDS011;58618;47.490;8.736;2023-05-10T11:51:19;2.80;;;0.80;;
70953;SDS011;58618;47.490;8.736;2023-05-10T11:54:09;1.40;;;1.00;;
70953;SDS011;58618;47.490;8.736;2023-05-10T11:56:57;2.15;;;1.15;;
70953;SDS011;58618;47.490;8.736;2023-05-10T11:59:46;1.45;;;1.00;;
70953;SDS011;58618;47.490;8.736;2023-05-10T12:02:33;1.02;;;0.90;;
70953;SDS011;58618;47.490;8.736;2023-05-10T12:05:21;1.10;;;0.97;;
70953;SDS011;58618;47.490;8.736;2023-05-10T12:08:12;2.35;;;0.90;;
70953;SDS011;58618;47.490;8.736;2023-05-10T12:11:04;1.70;;;0.90;;
70953;SDS011;58618;47.490;8.736;2023-05-10T12:13:53;1.23;;;0.93;;
70953;SDS011;58618;47.490;8.736;2023-05-10T12:16:43;1.15;;;0.90;;
70953;SDS011;58618;47.490;8.736;2023-05-10T12:19:36;2.87;;;0.97;;
70953;SDS011;58618;47.490;8.736;2023-05-10T12:22:24;2.20;;;1.05;;
70953;SDS011;58618;47.490;8.736;2023-05-10T12:25:11;1.70;;;1.08;;
70953;SDS011;58618;47.490;8.736;2023-05-10T12:27:59;1.40;;;1.00;;
70953;SDS011;58618;47.490;8.736;2023-05-10T12:30:49;2.65;;;0.90;;
70953;SDS011;58618;47.490;8.736;2023-05-10T12:33:42;1.43;;;0.77;;
70953;SDS011;58618;47.490;8.736;2023-05-10T12:36:31;2.42;;;1.00;;
70953;SDS011;58618;47.490;8.736;2023-05-10T12:39:18;2.10;;;1.00;;
70953;SDS011;58618;47.490;8.736;2023-05-10T12:42:05;5.32;;;1.25;;
70953;SDS011;58618;47.490;8.736;2023-05-10T12:44:54;1.70;;;1.13;;
70953;SDS011;58618;47.490;8.736;2023-05-10T12:47:42;1.70;;;0.87;;
70953;SDS011;58618;47.490;8.736;2023-05-10T12:50:30;1.83;;;1.10;;
70953;SDS011;58618;47.490;8.736;2023-05-10T12:53:18;1.50;;;1.05;;
70953;SDS011;58618;47.490;8.736;2023-05-10T12:56:05;2.15;;;1.00;;
70953;SDS011;58618;47.490;8.736;2023-05-10T12:58:53;1.40;;;1.08;;
70953;SDS011;58618;47.490;8.736;2023-05-10T13:01:41;3.27;;;1.10;;
70953;SDS011;58618;47.490;8.736;2023-05-10T13:04:28;1.67;;;1.00;;
70953;SDS011;58618;47.490;8.736;2023-05-10T13:07:17;1.00;;;0.90;;
70953;SDS011;58618;47.490;8.736;2023-05-10T13:10:04;2.22;;;0.85;;
70953;SDS011;58618;47.490;8.736;2023-05-10T13:12:53;2.03;;;1.20;;
70953;SDS011;58618;47.490;8.736;2023-05-10T13:15:40;3.20;;;0.90;;
70953;SDS011;58618;47.490;8.736;2023-05-10T13:18:27;1.15;;;1.00;;
70953;SDS011;58618;47.490;8.736;2023-05-10T13:21:15;2.58;;;1.10;;
70953;SDS011;58618;47.490;8.736;2023-05-10T13:24:04;4.15;;;1.23;;
70953;SDS011;58618;47.490;8.736;2023-05-10T13:26:51;2.40;;;1.20;;
70953;SDS011;58618;47.490;8.736;2023-05-10T13:29:38;1.83;;;1.20;;
70953;SDS011;58618;47.490;8.736;2023-05-10T13:32:26;2.97;;;1.08;;
70953;SDS011;58618;47.490;8.736;2023-05-10T13:35:13;2.05;;;1.15;;
70953;SDS011;58618;47.490;8.736;2023-05-10T13:38:01;2.92;;;1.05;;
70953;SDS011;58618;47.490;8.736;2023-05-10T13:40:49;1.33;;;1.20;;
70953;SDS011;58618;47.490;8.736;2023-05-10T13:43:38;5.00;;;1.20;;
70953;SDS011;58618;47.490;8.736;2023-05-10T13:46:25;2.85;;;1.00;;
70953;SDS011;58618;47.490;8.736;2023-05-10T13:49:13;1.98;;;1.05;;
70953;SDS011;58618;47.490;8.736;2023-05-10T13:52:00;2.20;;;1.00;;
70953;SDS011;58618;47.490;8.736;2023-05-10T13:54:52;1.75;;;1.30;;
70953;SDS011;58618;47.490;8.736;2023-05-10T13:57:42;1.30;;;1.07;;
70953;SDS011;58618;47.490;8.736;2023-05-10T14:00:29;1.52;;;1.10;;
70953;SDS011;58618;47.490;8.736;2023-05-10T14:03:16;1.83;;;1.23;;
70953;SDS011;58618;47.490;8.736;2023-05-10T14:06:03;1.48;;;1.00;;
70953;SDS011;58618;47.490;8.736;2023-05-10T14:08:53;2.92;;;1.40;;
70953;SDS011;58618;47.490;8.736;2023-05-10T14:11:40;1.70;;;1.07;;
70953;SDS011;58618;47.490;8.736;2023-05-10T14:14:30;2.33;;;1.30;;
70953;SDS011;58618;47.490;8.736;2023-05-10T14:17:17;5.00;;;1.50;;
70953;SDS011;58618;47.490;8.736;2023-05-10T14:20:05;1.60;;;1.30;;
70953;SDS011;58618;47.490;8.736;2023-05-10T14:22:54;4.40;;;1.58;;
70953;SDS011;58618;47.490;8.736;2023-05-10T14:25:41;1.93;;;1.40;;
70953;SDS011;58618;47.490;8.736;2023-05-10T14:28:29;3.13;;;1.65;;
70953;SDS011;58618;47.490;8.736;2023-05-10T14:31:18;1.60;;;1.23;;
70953;SDS011;58618;47.490;8.736;2023-05-10T14:34:06;2.25;;;1.00;;
70953;SDS011;58618;47.490;8.736;2023-05-10T14:36:53;4.30;;;1.23;;
70953;SDS011;58618;47.490;8.736;2023-05-10T14:39:41;1.30;;;0.90;;
70953;SDS011;58618;47.490;8.736;2023-05-10T14:42:28;1.73;;;1.25;;
70953;SDS011;58618;47.490;8.736;2023-05-10T14:45:16;2.28;;;1.33;;
70953;SDS011;58618;47.490;8.736;2023-05-10T14:48:05;2.22;;;1.15;;
70953;SDS011;58618;47.490;8.736;2023-05-10T14:50:54;2.22;;;1.20;;
70953;SDS011;58618;47.490;8.736;2023-05-10T14:53:42;3.17;;;1.00;;
70953;SDS011;58618;47.490;8.736;2023-05-10T14:56:29;1.58;;;1.20;;
70953;SDS011;58618;47.490;8.736;2023-05-10T14:59:17;2.78;;;1.15;;
70953;SDS011;58618;47.490;8.736;2023-05-10T15:02:04;2.33;;;1.10;;
70953;SDS011;58618;47.490;8.736;2023-05-10T15:04:53;1.65;;;1.20;;
70953;SDS011;58618;47.490;8.736;2023-05-10T15:07:40;4.37;;;0.97;;
70953;SDS011;58618;47.490;8.736;2023-05-10T15:10:29;1.55;;;1.08;;
70953;SDS011;58618;47.490;8.736;2023-05-10T15:13:17;2.50;;;1.23;;
70953;SDS011;58618;47.490;8.736;2023-05-10T15:16:04;1.77;;;1.00;;
70953;SDS011;58618;47.490;8.736;2023-05-10T15:18:52;2.70;;;1.25;;
70953;SDS011;58618;47.490;8.736;2023-05-10T15:21:40;2.73;;;1.00;;
70953;SDS011;58618;47.490;8.736;2023-05-10T15:24:30;1.73;;;1.17;;
70953;SDS011;58618;47.490;8.736;2023-05-10T15:27:17;1.73;;;1.25;;
70953;SDS011;58618;47.490;8.736;2023-05-10T15:30:05;1.98;;;1.15;;
70953;SDS011;58618;47.490;8.736;2023-05-10T15:32:54;1.50;;;1.00;;
70953;SDS011;58618;47.490;8.736;2023-05-10T15:35:41;1.73;;;0.90;;
70953;SDS011;58618;47.490;8.736;2023-05-10T15:38:30;1.65;;;1.08;;
70953;SDS011;58618;47.490;8.736;2023-05-10T15:41:17;2.70;;;1.30;;
70953;SDS011;58618;47.490;8.736;2023-05-10T15:44:04;1.00;;;0.90;;
70953;SDS011;58618;47.490;8.736;2023-05-10T15:46:52;2.33;;;1.00;;
70953;SDS011;58618;47.490;8.736;2023-05-10T15:49:39;2.90;;;1.10;;
70953;SDS011;58618;47.490;8.736;2023-05-10T15:52:27;1.75;;;0.90;;
70953;SDS011;58618;47.490;8.736;2023-05-10T15:55:15;1.45;;;1.00;;
70953;SDS011;58618;47.490;8.736;2023-05-10T15:58:03;2.85;;;1.00;;
70953;SDS011;58618;47.490;8.736;2023-05-10T16:00:50;1.85;;;1.00;;
70953;SDS011;58618;47.490;8.736;2023-05-10T16:03:37;2.23;;;1.00;;
70953;SDS011;58618;47.490;8.736;2023-05-10T16:06:26;1.33;;;0.90;;
70953;SDS011;58618;47.490;8.736;2023-05-10T16:09:13;1.75;;;1.00;;
70953;SDS011;58618;47.490;8.736;2023-05-10T16:12:02;1.67;;;1.00;;
70953;SDS011;58618;47.490;8.736;2023-05-10T16:14:50;1.52;;;1.08;;
70953;SDS011;58618;47.490;8.736;2023-05-10T16:17:37;2.10;;;1.00;;
70953;SDS011;58618;47.490;8.736;2023-05-10T16:20:25;2.75;;;0.98;;
70953;SDS011;58618;47.490;8.736;2023-05-10T16:23:12;3.65;;;1.17;;
70953;SDS011;58618;47.490;8.736;2023-05-10T16:26:00;1.25;;;0.88;;
70953;SDS011;58618;47.490;8.736;2023-05-10T16:28:49;1.08;;;0.98;;
70953;SDS011;58618;47.490;8.736;2023-05-10T16:31:37;5.80;;;0.90;;
70953;SDS011;58618;47.490;8.736;2023-05-10T16:34:25;1.30;;;1.00;;
70953;SDS011;58618;47.490;8.736;2023-05-10T16:37:12;2.90;;;0.80;;
70953;SDS011;58618;47.490;8.736;2023-05-10T16:39:59;1.40;;;1.05;;
70953;SDS011;58618;47.490;8.736;2023-05-10T16:42:47;3.33;;;0.98;;
70953;SDS011;58618;47.490;8.736;2023-05-10T16:45:35;1.47;;;1.00;;
70953;SDS011;58618;47.490;8.736;2023-05-10T16:48:23;1.85;;;1.02;;
70953;SDS011;58618;47.490;8.736;2023-05-10T16:51:10;1.20;;;0.90;;
70953;SDS011;58618;47.490;8.736;2023-05-10T16:53:58;1.20;;;0.90;;
70953;SDS011;58618;47.490;8.736;2023-05-10T16:56:45;1.55;;;1.02;;
70953;SDS011;58618;47.490;8.736;2023-05-10T16:59:32;1.30;;;0.93;;
70953;SDS011;58618;47.490;8.736;2023-05-10T17:02:21;1.15;;;0.90;;